Liverpool, United Kingdom

11:31 AM BST on October 02, 2014 (GMT +0100)
Liverpool | Change Station
CLOSE
Current Station
Airport
Location: Liverpool,
Elevation: 85 ft
Nearby Weather Stations

Elev 85 ft 53.33 °N, 2.85 °W | Updated 11 minutes ago

Clear
Clear
57 °F
Feels Like 57 °F
N
2
Wind Variable Wind from Variable

Today
High -- | Low -- °F
--% Chance of Precip.
Yesterday
High -- | Low -- °F
Precip. -- in
7:14 AM 6:46 PM
First Quarter, 57% visible
Pressure 30.39 in
Visibility -9999.0 miles
Clouds
Dew Point 48 °F
Humidity 72%
Rainfall 0.00 in
Snow Depth Not available.
UV Not available.
Pollen Not available.
Air Quality Not available.
Flu Activity Not available.
METAR EGGP 021020Z VRB02KT CAVOK 14/09 Q1029

More Conditions Fewer Conditions

Pressure 30.39 in
Visibility -9999.0 miles
Clouds
Dew Point 48 °F
Humidity 72%
Rainfall 0.00 in
Snow Depth Not available.
UV Not available.
Pollen Not available.
Air Quality Not available.
Flu Activity Not available.
METAR EGGP 021020Z VRB02KT CAVOK 14/09 Q1029

More Conditions Fewer Conditions

10-Day Weather Forecast

Almanac

Astronomy

Oct. 02, 2014 Rise Set
Actual Time 7:14 AM BST 6:46 PM BST
Civil Twilight 6:39 AM BST 7:20 PM BST
Nautical Twilight 5:59 AM BST 8:01 PM BST
Astronomical Twilight 5:17 AM BST 8:42 PM BST
Moon 3:25 PM BST No Moon Set
Length of Visible Light 12h 40m
Length of Day
11h 31m
Tomorrow will be 4m 10s shorter.
First Quarter, 57% of the Moon is Illuminated
Today
First Quarter
Oct 8
Full
Oct 15
Last Quarter
Oct 23
New
Oct 30
First Quarter

Yesterday's Extremes

Country Highs Country Lows

Community

WunderPhotos

Upload Photos

1,758,210 photos uploaded!

WunderBlogs® & News

Nearby

Snow Depth

Not available.

Earthquake Activity

City Distance Mag. Time & Date
No recent earthquake activity has been reported nearby.
Minimum magnitude displayed is 2.5.

Coastal Water Temperatures

Place Temperature
No Stations Reporting

Nearby Weather Stations